sensor_id;sensor_type;location;lat;lon;timestamp;P1;durP1;ratioP1;P2;durP2;ratioP2
495;SDS011;39559;48.630;9.162;2024-03-08T00:00:34;34.20;;;19.33;;
495;SDS011;39559;48.630;9.162;2024-03-08T00:02:59;36.03;;;20.10;;
495;SDS011;39559;48.630;9.162;2024-03-08T00:07:33;34.35;;;19.38;;
495;SDS011;39559;48.630;9.162;2024-03-08T00:09:58;35.30;;;19.80;;
495;SDS011;39559;48.630;9.162;2024-03-08T00:12:23;36.60;;;21.07;;
495;SDS011;39559;48.630;9.162;2024-03-08T00:14:52;33.47;;;19.60;;
495;SDS011;39559;48.630;9.162;2024-03-08T00:17:20;34.83;;;20.13;;
495;SDS011;39559;48.630;9.162;2024-03-08T00:19:50;33.60;;;20.48;;
495;SDS011;39559;48.630;9.162;2024-03-08T00:22:16;39.50;;;21.00;;
495;SDS011;39559;48.630;9.162;2024-03-08T00:24:42;30.58;;;19.90;;
495;SDS011;39559;48.630;9.162;2024-03-08T00:27:08;32.80;;;19.85;;
495;SDS011;39559;48.630;9.162;2024-03-08T00:31:33;35.15;;;21.25;;
495;SDS011;39559;48.630;9.162;2024-03-08T00:33:58;38.23;;;22.17;;
495;SDS011;39559;48.630;9.162;2024-03-08T00:36:25;36.35;;;21.17;;
495;SDS011;39559;48.630;9.162;2024-03-08T00:38:50;35.73;;;19.33;;
495;SDS011;39559;48.630;9.162;2024-03-08T00:41:16;33.90;;;20.73;;
495;SDS011;39559;48.630;9.162;2024-03-08T00:43:41;32.70;;;19.20;;
495;SDS011;39559;48.630;9.162;2024-03-08T00:46:07;40.27;;;21.60;;
495;SDS011;39559;48.630;9.162;2024-03-08T00:48:33;33.17;;;19.50;;
495;SDS011;39559;48.630;9.162;2024-03-08T00:50:58;34.90;;;19.77;;
495;SDS011;39559;48.630;9.162;2024-03-08T00:55:33;32.05;;;17.48;;
495;SDS011;39559;48.630;9.162;2024-03-08T00:58:00;35.08;;;19.88;;
495;SDS011;39559;48.630;9.162;2024-03-08T01:00:25;33.92;;;18.52;;
495;SDS011;39559;48.630;9.162;2024-03-08T01:02:51;36.60;;;20.30;;
495;SDS011;39559;48.630;9.162;2024-03-08T01:05:17;37.67;;;19.57;;
495;SDS011;39559;48.630;9.162;2024-03-08T01:07:43;45.00;;;22.60;;
495;SDS011;39559;48.630;9.162;2024-03-08T01:10:11;35.90;;;19.40;;
495;SDS011;39559;48.630;9.162;2024-03-08T01:12:37;32.67;;;17.87;;
495;SDS011;39559;48.630;9.162;2024-03-08T01:15:04;31.42;;;16.75;;
495;SDS011;39559;48.630;9.162;2024-03-08T01:19:34;37.45;;;18.88;;
495;SDS011;39559;48.630;9.162;2024-03-08T01:22:00;45.43;;;21.73;;
495;SDS011;39559;48.630;9.162;2024-03-08T01:24:25;39.77;;;20.37;;
495;SDS011;39559;48.630;9.162;2024-03-08T01:26:51;34.00;;;19.70;;
495;SDS011;39559;48.630;9.162;2024-03-08T01:29:16;29.30;;;16.60;;
495;SDS011;39559;48.630;9.162;2024-03-08T01:31:42;29.93;;;16.57;;
495;SDS011;39559;48.630;9.162;2024-03-08T01:34:08;33.20;;;18.37;;
495;SDS011;39559;48.630;9.162;2024-03-08T01:36:33;36.38;;;19.10;;
495;SDS011;39559;48.630;9.162;2024-03-08T01:38:59;33.80;;;17.20;;
495;SDS011;39559;48.630;9.162;2024-03-08T01:43:35;35.55;;;18.70;;
495;SDS011;39559;48.630;9.162;2024-03-08T01:46:00;32.70;;;18.10;;
495;SDS011;39559;48.630;9.162;2024-03-08T01:48:27;29.58;;;16.98;;
495;SDS011;39559;48.630;9.162;2024-03-08T01:50:55;30.90;;;17.38;;
495;SDS011;39559;48.630;9.162;2024-03-08T01:53:22;37.95;;;19.00;;
495;SDS011;39559;48.630;9.162;2024-03-08T01:55:49;49.60;;;22.08;;
495;SDS011;39559;48.630;9.162;2024-03-08T01:58:17;32.17;;;17.92;;
495;SDS011;39559;48.630;9.162;2024-03-08T02:00:45;33.72;;;19.65;;
495;SDS011;39559;48.630;9.162;2024-03-08T02:03:15;35.30;;;19.92;;
495;SDS011;39559;48.630;9.162;2024-03-08T02:07:35;38.97;;;19.50;;
495;SDS011;39559;48.630;9.162;2024-03-08T02:10:01;32.97;;;17.83;;
495;SDS011;39559;48.630;9.162;2024-03-08T02:12:26;39.00;;;17.97;;
495;SDS011;39559;48.630;9.162;2024-03-08T02:14:53;37.47;;;16.90;;
495;SDS011;39559;48.630;9.162;2024-03-08T02:17:19;31.38;;;16.55;;
495;SDS011;39559;48.630;9.162;2024-03-08T02:19:44;33.43;;;18.60;;
495;SDS011;39559;48.630;9.162;2024-03-08T02:22:10;32.37;;;17.70;;
495;SDS011;39559;48.630;9.162;2024-03-08T02:24:35;31.33;;;18.40;;
495;SDS011;39559;48.630;9.162;2024-03-08T02:27:01;35.70;;;20.07;;
495;SDS011;39559;48.630;9.162;2024-03-08T02:31:37;33.25;;;18.23;;
495;SDS011;39559;48.630;9.162;2024-03-08T02:34:04;31.10;;;16.58;;
495;SDS011;39559;48.630;9.162;2024-03-08T02:36:30;37.33;;;18.90;;
495;SDS011;39559;48.630;9.162;2024-03-08T02:39:00;29.95;;;16.15;;
495;SDS011;39559;48.630;9.162;2024-03-08T02:41:30;34.35;;;18.00;;
495;SDS011;39559;48.630;9.162;2024-03-08T02:43:56;35.00;;;18.10;;
495;SDS011;39559;48.630;9.162;2024-03-08T02:46:21;33.97;;;18.60;;
495;SDS011;39559;48.630;9.162;2024-03-08T02:48:47;29.57;;;16.30;;
495;SDS011;39559;48.630;9.162;2024-03-08T02:51:12;32.70;;;17.00;;
495;SDS011;39559;48.630;9.162;2024-03-08T02:55:38;34.17;;;17.83;;
495;SDS011;39559;48.630;9.162;2024-03-08T02:58:04;32.65;;;18.10;;
495;SDS011;39559;48.630;9.162;2024-03-08T03:00:30;39.63;;;18.30;;
495;SDS011;39559;48.630;9.162;2024-03-08T03:02:56;35.67;;;18.50;;
495;SDS011;39559;48.630;9.162;2024-03-08T03:05:22;35.30;;;18.42;;
495;SDS011;39559;48.630;9.162;2024-03-08T03:07:49;34.67;;;19.33;;
495;SDS011;39559;48.630;9.162;2024-03-08T03:10:18;30.67;;;17.60;;
495;SDS011;39559;48.630;9.162;2024-03-08T03:12:44;35.08;;;18.38;;
495;SDS011;39559;48.630;9.162;2024-03-08T03:15:11;35.67;;;17.98;;
495;SDS011;39559;48.630;9.162;2024-03-08T03:19:42;31.52;;;17.75;;
495;SDS011;39559;48.630;9.162;2024-03-08T03:22:08;38.58;;;19.45;;
495;SDS011;39559;48.630;9.162;2024-03-08T03:24:35;43.17;;;24.73;;
495;SDS011;39559;48.630;9.162;2024-03-08T03:27:06;41.63;;;22.35;;
495;SDS011;39559;48.630;9.162;2024-03-08T03:29:36;37.25;;;20.08;;
495;SDS011;39559;48.630;9.162;2024-03-08T03:32:03;35.47;;;20.05;;
495;SDS011;39559;48.630;9.162;2024-03-08T03:34:29;32.42;;;18.55;;
495;SDS011;39559;48.630;9.162;2024-03-08T03:36:55;34.33;;;18.87;;
495;SDS011;39559;48.630;9.162;2024-03-08T03:39:21;32.75;;;18.98;;
495;SDS011;39559;48.630;9.162;2024-03-08T03:43:40;30.30;;;16.58;;
495;SDS011;39559;48.630;9.162;2024-03-08T03:46:06;33.87;;;17.50;;
495;SDS011;39559;48.630;9.162;2024-03-08T03:48:32;32.53;;;17.33;;
495;SDS011;39559;48.630;9.162;2024-03-08T03:50:58;31.60;;;16.57;;
495;SDS011;39559;48.630;9.162;2024-03-08T03:53:24;36.40;;;20.10;;
495;SDS011;39559;48.630;9.162;2024-03-08T03:55:51;37.78;;;21.20;;
495;SDS011;39559;48.630;9.162;2024-03-08T03:58:16;36.93;;;20.43;;
495;SDS011;39559;48.630;9.162;2024-03-08T04:00:47;32.15;;;18.77;;
495;SDS011;39559;48.630;9.162;2024-03-08T04:03:14;32.08;;;18.77;;
495;SDS011;39559;48.630;9.162;2024-03-08T04:07:42;31.90;;;17.13;;
495;SDS011;39559;48.630;9.162;2024-03-08T04:10:09;34.30;;;19.77;;
495;SDS011;39559;48.630;9.162;2024-03-08T04:12:36;38.95;;;21.83;;
495;SDS011;39559;48.630;9.162;2024-03-08T04:15:02;36.73;;;19.77;;
495;SDS011;39559;48.630;9.162;2024-03-08T04:17:28;32.73;;;18.10;;
495;SDS011;39559;48.630;9.162;2024-03-08T04:19:53;32.60;;;18.23;;
495;SDS011;39559;48.630;9.162;2024-03-08T04:22:19;35.37;;;18.30;;
495;SDS011;39559;48.630;9.162;2024-03-08T04:24:45;32.57;;;18.17;;
495;SDS011;39559;48.630;9.162;2024-03-08T04:27:11;35.42;;;18.75;;
495;SDS011;39559;48.630;9.162;2024-03-08T04:31:43;33.72;;;18.60;;
495;SDS011;39559;48.630;9.162;2024-03-08T04:34:08;37.40;;;18.73;;
495;SDS011;39559;48.630;9.162;2024-03-08T04:36:34;37.07;;;18.80;;
495;SDS011;39559;48.630;9.162;2024-03-08T04:38:59;36.33;;;18.67;;
495;SDS011;39559;48.630;9.162;2024-03-08T04:41:25;34.20;;;17.63;;
495;SDS011;39559;48.630;9.162;2024-03-08T04:43:51;37.83;;;19.37;;
495;SDS011;39559;48.630;9.162;2024-03-08T04:46:17;36.70;;;18.70;;
495;SDS011;39559;48.630;9.162;2024-03-08T04:48:43;34.60;;;18.13;;
495;SDS011;39559;48.630;9.162;2024-03-08T04:51:08;31.57;;;17.33;;
495;SDS011;39559;48.630;9.162;2024-03-08T04:55:45;33.53;;;18.67;;
495;SDS011;39559;48.630;9.162;2024-03-08T04:58:10;32.80;;;17.53;;
495;SDS011;39559;48.630;9.162;2024-03-08T05:00:36;30.00;;;17.07;;
495;SDS011;39559;48.630;9.162;2024-03-08T05:03:01;34.70;;;18.10;;
495;SDS011;39559;48.630;9.162;2024-03-08T05:05:27;33.08;;;19.20;;
495;SDS011;39559;48.630;9.162;2024-03-08T05:07:54;32.65;;;16.85;;
495;SDS011;39559;48.630;9.162;2024-03-08T05:10:20;34.57;;;18.17;;
495;SDS011;39559;48.630;9.162;2024-03-08T05:12:45;33.73;;;18.83;;
495;SDS011;39559;48.630;9.162;2024-03-08T05:15:11;30.40;;;17.10;;
495;SDS011;39559;48.630;9.162;2024-03-08T05:19:44;32.50;;;17.77;;
495;SDS011;39559;48.630;9.162;2024-03-08T05:22:10;29.93;;;16.67;;
495;SDS011;39559;48.630;9.162;2024-03-08T05:24:35;29.70;;;17.30;;
495;SDS011;39559;48.630;9.162;2024-03-08T05:27:01;33.17;;;16.97;;
495;SDS011;39559;48.630;9.162;2024-03-08T05:29:28;35.38;;;16.20;;
495;SDS011;39559;48.630;9.162;2024-03-08T05:31:54;37.10;;;17.20;;
495;SDS011;39559;48.630;9.162;2024-03-08T05:34:20;31.77;;;19.10;;
495;SDS011;39559;48.630;9.162;2024-03-08T05:36:50;32.22;;;16.90;;
495;SDS011;39559;48.630;9.162;2024-03-08T05:39:16;33.70;;;15.75;;
495;SDS011;39559;48.630;9.162;2024-03-08T05:43:48;31.77;;;17.40;;
495;SDS011;39559;48.630;9.162;2024-03-08T05:46:15;32.23;;;18.30;;
495;SDS011;39559;48.630;9.162;2024-03-08T05:48:41;32.15;;;17.02;;
495;SDS011;39559;48.630;9.162;2024-03-08T05:51:07;38.13;;;19.53;;
495;SDS011;39559;48.630;9.162;2024-03-08T05:53:32;34.67;;;17.60;;
495;SDS011;39559;48.630;9.162;2024-03-08T05:55:58;35.38;;;18.67;;
495;SDS011;39559;48.630;9.162;2024-03-08T05:58:24;30.17;;;16.80;;
495;SDS011;39559;48.630;9.162;2024-03-08T06:00:50;31.65;;;17.70;;
495;SDS011;39559;48.630;9.162;2024-03-08T06:03:16;32.93;;;17.87;;
495;SDS011;39559;48.630;9.162;2024-03-08T06:07:49;33.03;;;16.95;;
495;SDS011;39559;48.630;9.162;2024-03-08T06:10:18;33.35;;;18.75;;
495;SDS011;39559;48.630;9.162;2024-03-08T06:12:44;33.83;;;19.65;;
495;SDS011;39559;48.630;9.162;2024-03-08T06:18:08;31.90;;;17.13;;
495;SDS011;39559;48.630;9.162;2024-03-08T06:20:37;35.13;;;18.55;;
495;SDS011;39559;48.630;9.162;2024-03-08T06:23:04;33.75;;;19.00;;
495;SDS011;39559;48.630;9.162;2024-03-08T06:25:31;41.28;;;22.15;;
495;SDS011;39559;48.630;9.162;2024-03-08T06:27:57;35.72;;;21.48;;
495;SDS011;39559;48.630;9.162;2024-03-08T06:31:53;37.83;;;22.48;;
495;SDS011;39559;48.630;9.162;2024-03-08T06:34:19;39.85;;;21.73;;
495;SDS011;39559;48.630;9.162;2024-03-08T06:36:47;37.95;;;21.20;;
495;SDS011;39559;48.630;9.162;2024-03-08T06:39:13;35.60;;;19.70;;
495;SDS011;39559;48.630;9.162;2024-03-08T06:41:38;39.27;;;20.53;;
495;SDS011;39559;48.630;9.162;2024-03-08T06:44:04;39.67;;;21.67;;
495;SDS011;39559;48.630;9.162;2024-03-08T06:46:30;38.30;;;19.70;;
495;SDS011;39559;48.630;9.162;2024-03-08T06:48:55;42.50;;;22.13;;
495;SDS011;39559;48.630;9.162;2024-03-08T06:51:21;33.70;;;20.43;;
495;SDS011;39559;48.630;9.162;2024-03-08T06:55:51;34.17;;;19.43;;
495;SDS011;39559;48.630;9.162;2024-03-08T06:58:17;38.80;;;22.27;;
495;SDS011;39559;48.630;9.162;2024-03-08T07:00:42;37.60;;;20.83;;
495;SDS011;39559;48.630;9.162;2024-03-08T07:03:09;31.85;;;18.55;;
495;SDS011;39559;48.630;9.162;2024-03-08T07:05:37;41.58;;;20.73;;
495;SDS011;39559;48.630;9.162;2024-03-08T07:08:03;36.33;;;19.93;;
495;SDS011;39559;48.630;9.162;2024-03-08T07:10:31;38.88;;;21.20;;
495;SDS011;39559;48.630;9.162;2024-03-08T07:12:56;36.60;;;20.20;;
495;SDS011;39559;48.630;9.162;2024-03-08T07:15:23;43.10;;;20.90;;
495;SDS011;39559;48.630;9.162;2024-03-08T07:19:59;37.13;;;19.55;;
495;SDS011;39559;48.630;9.162;2024-03-08T07:22:36;38.25;;;20.88;;
495;SDS011;39559;48.630;9.162;2024-03-08T07:25:02;40.63;;;20.80;;
495;SDS011;39559;48.630;9.162;2024-03-08T07:27:35;35.35;;;20.92;;
495;SDS011;39559;48.630;9.162;2024-03-08T07:30:01;36.03;;;20.03;;
495;SDS011;39559;48.630;9.162;2024-03-08T07:32:35;39.60;;;20.23;;
495;SDS011;39559;48.630;9.162;2024-03-08T07:35:01;38.85;;;20.75;;
495;SDS011;39559;48.630;9.162;2024-03-08T07:37:28;40.90;;;21.13;;
495;SDS011;39559;48.630;9.162;2024-03-08T07:39:54;29.80;;;18.05;;
495;SDS011;39559;48.630;9.162;2024-03-08T07:43:59;31.33;;;16.02;;
495;SDS011;39559;48.630;9.162;2024-03-08T07:46:29;30.33;;;15.40;;
495;SDS011;39559;48.630;9.162;2024-03-08T07:48:54;25.27;;;15.20;;
495;SDS011;39559;48.630;9.162;2024-03-08T07:51:23;27.83;;;15.90;;
495;SDS011;39559;48.630;9.162;2024-03-08T07:53:49;28.13;;;15.65;;
495;SDS011;39559;48.630;9.162;2024-03-08T07:56:14;30.27;;;16.50;;
495;SDS011;39559;48.630;9.162;2024-03-08T07:58:43;27.17;;;16.35;;
495;SDS011;39559;48.630;9.162;2024-03-08T08:01:17;32.38;;;16.45;;
495;SDS011;39559;48.630;9.162;2024-03-08T08:03:43;29.45;;;15.93;;
495;SDS011;39559;48.630;9.162;2024-03-08T08:08:01;30.05;;;16.30;;
495;SDS011;39559;48.630;9.162;2024-03-08T08:10:32;32.25;;;17.27;;
495;SDS011;39559;48.630;9.162;2024-03-08T08:12:59;29.95;;;17.30;;
495;SDS011;39559;48.630;9.162;2024-03-08T08:15:24;30.63;;;15.90;;
495;SDS011;39559;48.630;9.162;2024-03-08T08:17:55;32.60;;;17.60;;
495;SDS011;39559;48.630;9.162;2024-03-08T08:20:30;29.13;;;16.15;;
495;SDS011;39559;48.630;9.162;2024-03-08T08:22:56;28.45;;;16.63;;
495;SDS011;39559;48.630;9.162;2024-03-08T08:25:23;26.80;;;16.38;;
495;SDS011;39559;48.630;9.162;2024-03-08T08:27:51;29.35;;;16.15;;
495;SDS011;39559;48.630;9.162;2024-03-08T08:32:02;27.52;;;16.38;;
495;SDS011;39559;48.630;9.162;2024-03-08T08:34:29;32.60;;;17.40;;
495;SDS011;39559;48.630;9.162;2024-03-08T08:36:55;31.00;;;16.75;;
495;SDS011;39559;48.630;9.162;2024-03-08T08:39:21;29.00;;;16.60;;
495;SDS011;39559;48.630;9.162;2024-03-08T08:41:48;28.67;;;14.60;;
495;SDS011;39559;48.630;9.162;2024-03-08T08:44:14;30.70;;;16.33;;
495;SDS011;39559;48.630;9.162;2024-03-08T08:46:40;29.10;;;15.95;;
495;SDS011;39559;48.630;9.162;2024-03-08T08:49:05;28.07;;;15.60;;
495;SDS011;39559;48.630;9.162;2024-03-08T08:51:34;27.52;;;16.38;;
495;SDS011;39559;48.630;9.162;2024-03-08T08:56:02;23.27;;;13.85;;
495;SDS011;39559;48.630;9.162;2024-03-08T08:58:28;31.57;;;16.00;;
495;SDS011;39559;48.630;9.162;2024-03-08T09:00:54;29.50;;;15.50;;
495;SDS011;39559;48.630;9.162;2024-03-08T09:03:19;25.93;;;14.40;;
495;SDS011;39559;48.630;9.162;2024-03-08T09:05:45;30.07;;;16.07;;
495;SDS011;39559;48.630;9.162;2024-03-08T09:08:11;24.47;;;15.53;;
495;SDS011;39559;48.630;9.162;2024-03-08T09:10:38;25.55;;;14.50;;
495;SDS011;39559;48.630;9.162;2024-03-08T09:13:04;24.60;;;14.02;;
495;SDS011;39559;48.630;9.162;2024-03-08T09:15:29;22.77;;;13.97;;
495;SDS011;39559;48.630;9.162;2024-03-08T09:20:04;26.70;;;14.45;;
495;SDS011;39559;48.630;9.162;2024-03-08T09:22:34;29.02;;;14.65;;
495;SDS011;39559;48.630;9.162;2024-03-08T09:25:01;26.95;;;15.15;;
495;SDS011;39559;48.630;9.162;2024-03-08T09:27:31;25.08;;;14.52;;
495;SDS011;39559;48.630;9.162;2024-03-08T09:30:01;25.70;;;14.05;;
495;SDS011;39559;48.630;9.162;2024-03-08T09:32:28;26.00;;;14.50;;
495;SDS011;39559;48.630;9.162;2024-03-08T09:34:55;24.45;;;13.05;;
495;SDS011;39559;48.630;9.162;2024-03-08T09:37:22;20.83;;;12.00;;
495;SDS011;39559;48.630;9.162;2024-03-08T09:39:48;24.70;;;13.52;;
495;SDS011;39559;48.630;9.162;2024-03-08T09:44:07;24.10;;;13.48;;
495;SDS011;39559;48.630;9.162;2024-03-08T09:46:34;23.92;;;14.68;;
495;SDS011;39559;48.630;9.162;2024-03-08T09:49:00;23.75;;;13.05;;
495;SDS011;39559;48.630;9.162;2024-03-08T09:51:29;24.70;;;12.95;;
495;SDS011;39559;48.630;9.162;2024-03-08T09:54:00;23.80;;;13.07;;
495;SDS011;39559;48.630;9.162;2024-03-08T09:56:46;23.65;;;12.77;;
495;SDS011;39559;48.630;9.162;2024-03-08T09:59:13;20.77;;;12.20;;
495;SDS011;39559;48.630;9.162;2024-03-08T10:01:49;26.73;;;13.32;;
495;SDS011;39559;48.630;9.162;2024-03-08T10:04:18;25.23;;;13.27;;
495;SDS011;39559;48.630;9.162;2024-03-08T10:08:09;27.23;;;13.82;;
495;SDS011;39559;48.630;9.162;2024-03-08T10:10:40;22.60;;;12.43;;
495;SDS011;39559;48.630;9.162;2024-03-08T10:13:07;25.52;;;13.38;;
495;SDS011;39559;48.630;9.162;2024-03-08T10:15:34;23.33;;;12.35;;
495;SDS011;39559;48.630;9.162;2024-03-08T10:18:01;21.83;;;12.20;;
495;SDS011;39559;48.630;9.162;2024-03-08T10:20:28;23.02;;;11.82;;
495;SDS011;39559;48.630;9.162;2024-03-08T10:23:00;20.95;;;11.30;;
495;SDS011;39559;48.630;9.162;2024-03-08T10:25:41;23.20;;;11.90;;
495;SDS011;39559;48.630;9.162;2024-03-08T10:28:08;22.17;;;12.65;;
495;SDS011;39559;48.630;9.162;2024-03-08T10:32:11;19.58;;;10.88;;
495;SDS011;39559;48.630;9.162;2024-03-08T10:34:37;21.07;;;11.00;;
495;SDS011;39559;48.630;9.162;2024-03-08T10:37:05;20.17;;;11.90;;
495;SDS011;39559;48.630;9.162;2024-03-08T10:39:37;22.13;;;11.32;;
495;SDS011;39559;48.630;9.162;2024-03-08T10:42:09;24.90;;;12.88;;
495;SDS011;39559;48.630;9.162;2024-03-08T10:44:50;17.90;;;10.38;;
495;SDS011;39559;48.630;9.162;2024-03-08T10:47:26;25.40;;;12.80;;
495;SDS011;39559;48.630;9.162;2024-03-08T10:50:38;17.95;;;10.77;;
495;SDS011;39559;48.630;9.162;2024-03-08T10:52:51;19.10;;;10.50;;
495;SDS011;39559;48.630;9.162;2024-03-08T10:56:10;23.60;;;11.50;;
495;SDS011;39559;48.630;9.162;2024-03-08T10:58:36;17.90;;;11.27;;
495;SDS011;39559;48.630;9.162;2024-03-08T11:01:05;20.30;;;11.75;;
495;SDS011;39559;48.630;9.162;2024-03-08T11:06:14;19.83;;;11.38;;
495;SDS011;39559;48.630;9.162;2024-03-08T11:08:42;20.20;;;11.85;;
495;SDS011;39559;48.630;9.162;2024-03-08T11:11:30;21.77;;;11.63;;
495;SDS011;39559;48.630;9.162;2024-03-08T11:14:02;16.00;;;10.73;;
495;SDS011;39559;48.630;9.162;2024-03-08T11:16:47;20.30;;;10.82;;
495;SDS011;39559;48.630;9.162;2024-03-08T11:20:11;17.00;;;10.40;;
495;SDS011;39559;48.630;9.162;2024-03-08T11:22:55;18.08;;;10.80;;
495;SDS011;39559;48.630;9.162;2024-03-08T11:25:31;27.45;;;12.60;;
495;SDS011;39559;48.630;9.162;2024-03-08T11:28:12;21.25;;;11.35;;
495;SDS011;39559;48.630;9.162;2024-03-08T11:30:46;21.40;;;11.02;;
495;SDS011;39559;48.630;9.162;2024-03-08T11:33:31;20.58;;;12.15;;
495;SDS011;39559;48.630;9.162;2024-03-08T11:38:40;18.42;;;11.07;;
495;SDS011;39559;48.630;9.162;2024-03-08T11:41:06;18.90;;;11.18;;
495;SDS011;39559;48.630;9.162;2024-03-08T11:44:10;19.53;;;11.07;;
495;SDS011;39559;48.630;9.162;2024-03-08T11:46:37;16.50;;;10.98;;
495;SDS011;39559;48.630;9.162;2024-03-08T11:49:05;21.35;;;9.95;;
495;SDS011;39559;48.630;9.162;2024-03-08T11:51:30;16.03;;;10.03;;
495;SDS011;39559;48.630;9.162;2024-03-08T11:53:57;14.40;;;9.68;;
495;SDS011;39559;48.630;9.162;2024-03-08T11:56:24;16.30;;;10.27;;
495;SDS011;39559;48.630;9.162;2024-03-08T11:58:54;19.97;;;10.07;;
495;SDS011;39559;48.630;9.162;2024-03-08T12:01:23;16.83;;;9.27;;
495;SDS011;39559;48.630;9.162;2024-03-08T12:03:53;15.05;;;9.90;;
495;SDS011;39559;48.630;9.162;2024-03-08T12:08:14;15.50;;;9.50;;
495;SDS011;39559;48.630;9.162;2024-03-08T12:10:41;15.30;;;10.02;;
495;SDS011;39559;48.630;9.162;2024-03-08T12:13:07;17.85;;;10.73;;
495;SDS011;39559;48.630;9.162;2024-03-08T12:15:39;18.27;;;10.27;;
495;SDS011;39559;48.630;9.162;2024-03-08T12:18:05;17.50;;;10.00;;
495;SDS011;39559;48.630;9.162;2024-03-08T12:20:32;18.67;;;10.93;;
495;SDS011;39559;48.630;9.162;2024-03-08T12:22:58;16.33;;;11.20;;
495;SDS011;39559;48.630;9.162;2024-03-08T12:26:18;17.88;;;10.88;;
495;SDS011;39559;48.630;9.162;2024-03-08T12:28:43;15.65;;;9.65;;
495;SDS011;39559;48.630;9.162;2024-03-08T12:32:18;20.55;;;10.38;;
495;SDS011;39559;48.630;9.162;2024-03-08T12:34:51;17.17;;;10.25;;
495;SDS011;39559;48.630;9.162;2024-03-08T12:37:19;18.55;;;10.65;;
495;SDS011;39559;48.630;9.162;2024-03-08T12:39:45;16.67;;;10.80;;
495;SDS011;39559;48.630;9.162;2024-03-08T12:42:11;19.57;;;11.17;;
495;SDS011;39559;48.630;9.162;2024-03-08T12:44:36;21.00;;;11.77;;
495;SDS011;39559;48.630;9.162;2024-03-08T12:47:10;16.17;;;10.38;;
495;SDS011;39559;48.630;9.162;2024-03-08T12:49:36;16.08;;;10.85;;
495;SDS011;39559;48.630;9.162;2024-03-08T12:52:08;15.45;;;10.35;;
495;SDS011;39559;48.630;9.162;2024-03-08T12:56:16;17.90;;;12.50;;
495;SDS011;39559;48.630;9.162;2024-03-08T12:59:08;17.02;;;11.40;;
495;SDS011;39559;48.630;9.162;2024-03-08T13:01:39;18.48;;;11.55;;
495;SDS011;39559;48.630;9.162;2024-03-08T13:04:06;16.85;;;12.15;;
495;SDS011;39559;48.630;9.162;2024-03-08T13:06:42;17.50;;;12.60;;
495;SDS011;39559;48.630;9.162;2024-03-08T13:09:07;20.30;;;11.75;;
495;SDS011;39559;48.630;9.162;2024-03-08T13:11:34;19.63;;;13.27;;
495;SDS011;39559;48.630;9.162;2024-03-08T13:14:02;24.90;;;14.02;;
495;SDS011;39559;48.630;9.162;2024-03-08T13:16:32;20.77;;;13.18;;
495;SDS011;39559;48.630;9.162;2024-03-08T13:20:13;18.55;;;12.82;;
495;SDS011;39559;48.630;9.162;2024-03-08T13:22:44;14.57;;;10.40;;
495;SDS011;39559;48.630;9.162;2024-03-08T13:25:10;18.02;;;11.70;;
495;SDS011;39559;48.630;9.162;2024-03-08T13:27:40;22.20;;;12.65;;
495;SDS011;39559;48.630;9.162;2024-03-08T13:30:12;19.25;;;10.30;;
495;SDS011;39559;48.630;9.162;2024-03-08T13:32:40;19.70;;;10.00;;
495;SDS011;39559;48.630;9.162;2024-03-08T13:35:09;13.73;;;10.30;;
495;SDS011;39559;48.630;9.162;2024-03-08T13:37:41;14.50;;;10.20;;
495;SDS011;39559;48.630;9.162;2024-03-08T13:40:09;23.35;;;12.10;;
495;SDS011;39559;48.630;9.162;2024-03-08T13:44:14;16.15;;;10.90;;
495;SDS011;39559;48.630;9.162;2024-03-08T13:46:40;14.03;;;10.23;;
495;SDS011;39559;48.630;9.162;2024-03-08T13:49:07;17.35;;;9.77;;
495;SDS011;39559;48.630;9.162;2024-03-08T13:51:39;17.77;;;9.75;;
495;SDS011;39559;48.630;9.162;2024-03-08T13:54:05;17.97;;;10.60;;
495;SDS011;39559;48.630;9.162;2024-03-08T13:56:32;17.90;;;11.20;;
495;SDS011;39559;48.630;9.162;2024-03-08T13:58:58;16.30;;;10.20;;
495;SDS011;39559;48.630;9.162;2024-03-08T14:01:25;14.35;;;8.90;;
495;SDS011;39559;48.630;9.162;2024-03-08T14:03:51;16.63;;;10.43;;
495;SDS011;39559;48.630;9.162;2024-03-08T14:10:59;17.45;;;10.73;;
495;SDS011;39559;48.630;9.162;2024-03-08T14:13:43;17.02;;;11.15;;
495;SDS011;39559;48.630;9.162;2024-03-08T14:16:11;16.45;;;10.88;;
495;SDS011;39559;48.630;9.162;2024-03-08T14:18:38;16.23;;;9.65;;
495;SDS011;39559;48.630;9.162;2024-03-08T14:21:05;17.88;;;11.00;;
495;SDS011;39559;48.630;9.162;2024-03-08T14:23:36;18.45;;;10.20;;
495;SDS011;39559;48.630;9.162;2024-03-08T14:26:05;17.17;;;9.73;;
495;SDS011;39559;48.630;9.162;2024-03-08T14:28:32;13.90;;;9.52;;
495;SDS011;39559;48.630;9.162;2024-03-08T14:32:13;19.30;;;10.55;;
495;SDS011;39559;48.630;9.162;2024-03-08T14:37:33;15.55;;;10.77;;
495;SDS011;39559;48.630;9.162;2024-03-08T14:40:00;17.83;;;10.65;;
495;SDS011;39559;48.630;9.162;2024-03-08T14:42:26;19.45;;;10.23;;
495;SDS011;39559;48.630;9.162;2024-03-08T14:44:53;17.95;;;10.23;;
495;SDS011;39559;48.630;9.162;2024-03-08T14:47:20;18.85;;;9.95;;
495;SDS011;39559;48.630;9.162;2024-03-08T14:49:48;16.42;;;10.02;;
495;SDS011;39559;48.630;9.162;2024-03-08T14:52:15;19.58;;;11.10;;
495;SDS011;39559;48.630;9.162;2024-03-08T14:56:11;18.20;;;9.75;;
495;SDS011;39559;48.630;9.162;2024-03-08T14:58:45;17.38;;;9.98;;
495;SDS011;39559;48.630;9.162;2024-03-08T15:01:18;17.05;;;9.15;;
495;SDS011;39559;48.630;9.162;2024-03-08T15:03:50;17.67;;;11.10;;
495;SDS011;39559;48.630;9.162;2024-03-08T15:06:16;16.33;;;10.30;;
495;SDS011;39559;48.630;9.162;2024-03-08T15:08:45;20.42;;;10.88;;
495;SDS011;39559;48.630;9.162;2024-03-08T15:11:11;18.70;;;9.67;;
495;SDS011;39559;48.630;9.162;2024-03-08T15:13:37;17.90;;;10.50;;
495;SDS011;39559;48.630;9.162;2024-03-08T15:16:10;23.33;;;10.88;;
495;SDS011;39559;48.630;9.162;2024-03-08T15:20:07;16.92;;;9.73;;
495;SDS011;39559;48.630;9.162;2024-03-08T15:22:47;18.35;;;10.93;;
495;SDS011;39559;48.630;9.162;2024-03-08T15:25:14;17.90;;;10.13;;
495;SDS011;39559;48.630;9.162;2024-03-08T15:27:47;22.75;;;10.50;;
495;SDS011;39559;48.630;9.162;2024-03-08T15:30:13;16.92;;;11.15;;
495;SDS011;39559;48.630;9.162;2024-03-08T15:32:43;17.23;;;9.73;;
495;SDS011;39559;48.630;9.162;2024-03-08T15:35:10;18.38;;;9.98;;
495;SDS011;39559;48.630;9.162;2024-03-08T15:37:43;16.50;;;10.90;;
495;SDS011;39559;48.630;9.162;2024-03-08T15:40:12;18.70;;;10.57;;
495;SDS011;39559;48.630;9.162;2024-03-08T15:44:07;14.63;;;9.15;;
495;SDS011;39559;48.630;9.162;2024-03-08T15:46:53;21.35;;;10.73;;
495;SDS011;39559;48.630;9.162;2024-03-08T15:49:19;17.33;;;10.50;;
495;SDS011;39559;48.630;9.162;2024-03-08T15:51:45;19.80;;;10.70;;
495;SDS011;39559;48.630;9.162;2024-03-08T15:54:11;23.95;;;11.43;;
495;SDS011;39559;48.630;9.162;2024-03-08T15:56:37;22.80;;;10.97;;
495;SDS011;39559;48.630;9.162;2024-03-08T15:59:03;16.37;;;10.67;;
495;SDS011;39559;48.630;9.162;2024-03-08T16:01:39;24.83;;;11.50;;
495;SDS011;39559;48.630;9.162;2024-03-08T16:04:05;19.93;;;11.53;;
495;SDS011;39559;48.630;9.162;2024-03-08T16:08:18;19.83;;;10.63;;
495;SDS011;39559;48.630;9.162;2024-03-08T16:10:48;15.95;;;9.82;;
495;SDS011;39559;48.630;9.162;2024-03-08T16:13:23;18.90;;;10.65;;
495;SDS011;39559;48.630;9.162;2024-03-08T16:15:53;18.27;;;10.57;;
495;SDS011;39559;48.630;9.162;2024-03-08T16:18:20;19.73;;;10.82;;